Absecon Highlands, NJ

8:14 AM EDT on September 16, 2014 (GMT -0400)
Galloway Twp Police Dept | Change Station
CLOSE
Current Station
Personal Weather Station
Location: Galloway, NJ
Elevation: 30 ft
Nearby Weather Stations

Elev 30 ft 39.46 °N, 74.50 °W | Updated 10 seconds ago

Overcast
Overcast
66.5 °F
Feels Like 66.5 °F
N
7.0
Wind Variable Wind from SSW
Gusts 9.0 mph

Today
High -- | Low -- °F
--% Chance of Precip.
Yesterday
High -- | Low -- °F
Precip. -- in
6:40 AM 7:04 PM
Last Quarter, 46% visible
Pressure 30.00 in
Visibility 10.0 miles
Clouds Overcast 2300 ft
Dew Point 62 °F
Humidity 85%
Rainfall 0.00 in
Snow Depth Not available.
UV 0 out of 12
Pollen 3.90 out of 12
Ozone Good
PM2.5 Moderate
Flu Activity Not available.
METAR KACY 161154Z 20003KT 10SM OVC023 19/16 A3000 RMK AO2 SLP157 T01890156 10189 20122 56008

More Conditions Fewer Conditions

Pressure 30.00 in
Visibility 10.0 miles
Clouds Overcast 2300 ft
Dew Point 62 °F
Humidity 85%
Rainfall 0.00 in
Snow Depth Not available.
UV 0 out of 12
Pollen 3.90 out of 12
Ozone Good
PM2.5 Moderate
Flu Activity Not available.
METAR KACY 161154Z 20003KT 10SM OVC023 19/16 A3000 RMK AO2 SLP157 T01890156 10189 20122 56008

More Conditions Fewer Conditions

Nowcast | as of 7:43 am EDT on September 16, 2014

At 740 am...National Weather Service Doppler radar indicated showers across much of New Jersey and eastern Pennsylvania...moving east around 25 mph. These showers will quickly move to the east and be out of the area within the next hour, but heavier showers could produce another tenth of an inch of rainfall. Lat...Lon 3967 7414 3892 7494 3893 7497 3915 7490 3921 7506 4018 7521 4116 7557 4125 7512 4109 7502 4135 7467 4121 7437 4105 7449 4097 7427 4060 7444 4061 7421 4047 7426 4043 7400 4048 7401 4032 7396

×

10-Day Weather Forecast

Almanac

Astronomy

Sep. 16, 2014 Rise Set
Actual Time 6:40 AM EDT 7:04 PM EDT
Civil Twilight 6:13 AM EDT 7:31 PM EDT
Nautical Twilight 5:41 AM EDT 8:03 PM EDT
Astronomical Twilight 5:09 AM EDT 8:35 PM EDT
Moon No Moon Rise 2:25 PM EDT
Length of Visible Light 13h 18m
Length of Day
12h 24m
Tomorrow will be 2m 33s shorter.
Last Quarter, 46% of the Moon is Illuminated
Today
Last Quarter
Sep 24
New
Oct 1
First Quarter
Oct 8
Full
Oct 15
Last Quarter

Today's Extremes

State Highs State Lows

Community

WunderPhotos

Upload Photos

1,753,743 photos uploaded!

Nearby

Air Quality

  Air Quality AQ Index Pollutant
Yesterday Good
PM2.5
Yesterday Good
OZONE
Current Moderate
PM2.5
Current Good
OZONE
Tuesday Good
PM2.5
Tuesday Good
OZONE
Wednesday Good
PM2.5
Wednesday Good
OZONE
Thursday Good
PM2.5
Thursday Good
OZONE

Snow Depth

Station Depth Elevation
No new snow has been reported.

Earthquake Activity

City Distance Mag. Time & Date
No recent earthquake activity has been reported nearby.
Minimum magnitude displayed is 2.5.

Coastal Water Temperatures

Place Temperature
Atlantic City, NJ 72.0 °F

Nearby Weather Stations